Time;durP1;ratioP1;P1;durP2;ratioP2;P2;SDS_P1;SDS_P2;PMS_P1;PMS_P2;Temp;Humidity;BMP_temperature;BMP_pressure;BME280_temperature;BME280_humidity;BME280_pressure;Samples;Min_cycle;Max_cycle;Signal;HPM_P1;HPM_P2
2023/01/07 00:02:15;;;;;;;53.43;27.30;;;;;;;;;;6265272;28;20075;-75
2023/01/07 00:08:28;;;;;;;56.35;27.85;;;;;;;;;;6468523;22;20270;-77
2023/01/07 00:11:29;;;;;;;61.05;30.13;;;;;;;;;;6248577;28;20409;-77
2023/01/07 00:14:29;;;;;;;49.63;25.48;;;;;;;;;;6256330;28;20021;-76
2023/01/07 00:17:29;;;;;;;51.88;28.90;;;;;;;;;;6251934;28;20029;-76
2023/01/07 00:20:30;;;;;;;67.13;35.28;;;;;;;;;;6243339;28;20384;-77
2023/01/07 00:23:31;;;;;;;62.40;31.43;;;;;;;;;;6249682;28;20037;-76
2023/01/07 00:26:33;;;;;;;68.18;32.08;;;;;;;;;;6231918;28;20028;-76
2023/01/07 00:29:33;;;;;;;44.70;23.92;;;;;;;;;;6251066;28;20021;-76
2023/01/07 00:36:02;;;;;;;44.95;23.00;;;;;;;;;;6238040;28;20037;-75
2023/01/07 00:39:05;;;;;;;39.03;20.77;;;;;;;;;;6234860;28;20509;-76
2023/01/07 00:45:24;;;;;;;38.97;20.45;;;;;;;;;;6245548;28;20476;-76
2023/01/07 00:48:24;;;;;;;34.70;19.87;;;;;;;;;;6227726;28;20048;-77
2023/01/07 00:51:24;;;;;;;34.58;18.95;;;;;;;;;;6247430;28;20049;-76
2023/01/07 00:54:25;;;;;;;37.37;19.00;;;;;;;;;;6245117;28;20026;-77
2023/01/07 00:57:25;;;;;;;32.55;19.48;;;;;;;;;;6247906;28;20021;-76
2023/01/07 01:00:25;;;;;;;37.85;20.33;;;;;;;;;;6241852;28;20030;-76
2023/01/07 01:03:26;;;;;;;37.40;20.27;;;;;;;;;;6245186;28;20033;-76
2023/01/07 01:06:26;;;;;;;47.73;23.60;;;;;;;;;;6246249;28;20108;-77
2023/01/07 01:09:27;;;;;;;40.87;23.13;;;;;;;;;;6245065;28;20596;-77
2023/01/07 01:12:27;;;;;;;44.80;23.07;;;;;;;;;;6228991;28;20797;-77
2023/01/07 01:15:27;;;;;;;39.17;22.87;;;;;;;;;;6226907;28;20535;-77
2023/01/07 01:18:27;;;;;;;46.37;24.77;;;;;;;;;;6246257;28;20037;-77
2023/01/07 01:21:28;;;;;;;47.23;26.57;;;;;;;;;;6227905;28;20133;-77
2023/01/07 01:24:28;;;;;;;48.63;26.30;;;;;;;;;;6245387;28;20029;-76
2023/01/07 01:27:29;;;;;;;59.20;28.40;;;;;;;;;;6245446;28;20408;-77
2023/01/07 01:30:30;;;;;;;53.33;27.05;;;;;;;;;;6245889;28;20018;-76
2023/01/07 01:33:30;;;;;;;58.70;29.25;;;;;;;;;;6246115;28;20380;-76
2023/01/07 01:36:30;;;;;;;58.33;28.00;;;;;;;;;;6236331;28;20065;-77
2023/01/07 01:39:30;;;;;;;51.87;25.90;;;;;;;;;;6246745;28;20112;-77
2023/01/07 01:42:31;;;;;;;50.17;28.73;;;;;;;;;;6244641;28;20473;-76
2023/01/07 01:45:31;;;;;;;48.60;26.63;;;;;;;;;;6222385;28;20017;-76
2023/01/07 01:48:32;;;;;;;48.27;25.47;;;;;;;;;;6241716;28;20032;-76
2023/01/07 01:51:35;;;;;;;53.42;26.42;;;;;;;;;;6244901;28;20029;-76
2023/01/07 01:54:36;;;;;;;49.13;25.88;;;;;;;;;;6244940;28;20445;-77
2023/01/07 01:57:37;;;;;;;41.13;24.03;;;;;;;;;;6243398;28;20071;-76
2023/01/07 02:00:37;;;;;;;43.50;21.87;;;;;;;;;;6242416;28;20140;-77
2023/01/07 02:03:38;;;;;;;42.83;27.27;;;;;;;;;;6243492;28;20398;-77
2023/01/07 02:06:51;;;;;;;42.80;22.67;;;;;;;;;;6224604;28;20048;-77
2023/01/07 02:10:08;;;;;;;41.28;22.35;;;;;;;;;;6243658;28;20492;-77
2023/01/07 02:13:17;;;;;;;43.10;22.88;;;;;;;;;;6245115;28;20045;-77
2023/01/07 02:16:21;;;;;;;53.80;31.00;;;;;;;;;;6239279;28;20037;-77
2023/01/07 02:19:21;;;;;;;42.90;24.30;;;;;;;;;;6237494;28;20373;-77
2023/01/07 02:22:44;;;;;;;36.65;19.95;;;;;;;;;;6236295;28;20477;-76
2023/01/07 02:26:00;;;;;;;35.58;19.40;;;;;;;;;;6242143;28;20036;-76
2023/01/07 02:29:18;;;;;;;38.53;20.60;;;;;;;;;;6243419;28;20021;-76
2023/01/07 02:32:24;;;;;;;39.55;20.33;;;;;;;;;;6244539;28;20029;-76
2023/01/07 02:35:33;;;;;;;41.15;21.00;;;;;;;;;;6245945;28;20075;-77
2023/01/07 02:38:52;;;;;;;38.08;20.55;;;;;;;;;;6225041;28;20061;-77
2023/01/07 02:42:00;;;;;;;45.55;23.60;;;;;;;;;;6243007;28;20083;-77
2023/01/07 02:45:03;;;;;;;43.13;23.95;;;;;;;;;;6245447;28;20089;-77
2023/01/07 02:48:08;;;;;;;43.08;22.13;;;;;;;;;;6240232;28;20021;-77
2023/01/07 02:51:08;;;;;;;86.90;36.92;;;;;;;;;;6240078;28;20492;-76
2023/01/07 02:54:14;;;;;;;97.17;31.60;;;;;;;;;;6244377;28;20017;-77
2023/01/07 02:57:28;;;;;;;46.40;26.90;;;;;;;;;;6230083;28;20021;-77
2023/01/07 03:00:28;;;;;;;49.88;27.95;;;;;;;;;;6228387;28;20025;-76
2023/01/07 03:03:28;;;;;;;53.85;30.17;;;;;;;;;;6230301;28;20029;-77
2023/01/07 03:06:47;;;;;;;60.47;29.13;;;;;;;;;;6248489;28;20123;-77
2023/01/07 03:09:53;;;;;;;48.65;29.40;;;;;;;;;;6244388;28;20064;-77
2023/01/07 03:12:57;;;;;;;56.92;33.38;;;;;;;;;;6242955;28;20033;-76
2023/01/07 03:16:02;;;;;;;49.28;28.42;;;;;;;;;;6248639;28;20040;-77
2023/01/07 03:19:06;;;;;;;53.83;29.75;;;;;;;;;;6244422;28;20047;-77
2023/01/07 03:22:07;;;;;;;78.82;28.67;;;;;;;;;;6248152;28;20536;-77
2023/01/07 03:25:08;;;;;;;53.25;27.20;;;;;;;;;;6248203;28;20426;-76
2023/01/07 03:28:09;;;;;;;54.13;28.07;;;;;;;;;;6230694;28;20064;-76
2023/01/07 03:31:10;;;;;;;51.92;26.15;;;;;;;;;;6247681;28;20020;-77
2023/01/07 03:34:11;;;;;;;53.70;28.33;;;;;;;;;;6248767;28;20469;-77
2023/01/07 03:37:14;;;;;;;49.53;27.67;;;;;;;;;;6244300;28;20021;-76
2023/01/07 03:40:15;;;;;;;58.25;28.67;;;;;;;;;;6241908;28;20097;-76
2023/01/07 03:43:19;;;;;;;55.78;32.65;;;;;;;;;;6242814;28;20028;-77
2023/01/07 03:46:19;;;;;;;53.60;32.28;;;;;;;;;;6244086;28;20101;-77
2023/01/07 03:49:20;;;;;;;61.97;29.13;;;;;;;;;;6246946;28;20022;-77
2023/01/07 03:52:20;;;;;;;97.77;24.53;;;;;;;;;;6248391;28;20027;-77
2023/01/07 03:55:20;;;;;;;105.00;31.33;;;;;;;;;;6247801;28;20013;-77
2023/01/07 03:58:20;;;;;;;58.65;30.15;;;;;;;;;;6247964;28;20021;-76
2023/01/07 04:01:20;;;;;;;88.50;33.70;;;;;;;;;;6241072;28;20022;-76
2023/01/07 04:04:21;;;;;;;60.47;31.58;;;;;;;;;;6247245;28;20436;-76
2023/01/07 04:07:21;;;;;;;156.57;38.70;;;;;;;;;;6236890;28;20030;-76
2023/01/07 04:10:21;;;;;;;179.93;37.77;;;;;;;;;;6225621;28;20060;-76
2023/01/07 04:13:21;;;;;;;61.43;30.90;;;;;;;;;;6238449;28;20025;-77
2023/01/07 04:16:21;;;;;;;65.23;31.53;;;;;;;;;;6244515;28;20159;-77
2023/01/07 04:19:22;;;;;;;62.33;32.08;;;;;;;;;;6246021;28;20017;-76
2023/01/07 04:22:22;;;;;;;54.83;28.80;;;;;;;;;;6228469;28;20025;-77
2023/01/07 04:25:22;;;;;;;50.55;28.40;;;;;;;;;;6229959;28;20021;-77
2023/01/07 04:28:22;;;;;;;69.28;29.65;;;;;;;;;;6220419;28;20148;-77
2023/01/07 04:31:22;;;;;;;245.07;37.60;;;;;;;;;;6247612;28;20022;-76
2023/01/07 04:34:23;;;;;;;242.25;31.75;;;;;;;;;;6229636;28;20070;-77
2023/01/07 04:37:23;;;;;;;313.63;38.73;;;;;;;;;;6229123;28;20029;-76
2023/01/07 04:40:23;;;;;;;277.40;36.58;;;;;;;;;;6228716;28;20018;-77
2023/01/07 04:43:23;;;;;;;330.40;45.43;;;;;;;;;;6246499;28;20052;-77
2023/01/07 04:46:24;;;;;;;323.93;43.57;;;;;;;;;;6247347;28;20067;-76
2023/01/07 04:49:24;;;;;;;281.83;41.90;;;;;;;;;;6227911;28;20014;-77
2023/01/07 04:52:24;;;;;;;265.07;37.60;;;;;;;;;;6246406;28;20080;-76
2023/01/07 04:55:24;;;;;;;223.98;34.38;;;;;;;;;;6224632;28;20023;-77
2023/01/07 04:58:24;;;;;;;217.40;35.93;;;;;;;;;;6220949;28;20026;-77
2023/01/07 05:01:25;;;;;;;201.67;33.50;;;;;;;;;;6243039;28;20017;-77
2023/01/07 05:04:25;;;;;;;281.90;41.47;;;;;;;;;;6228704;28;20018;-77
2023/01/07 05:07:25;;;;;;;219.70;37.80;;;;;;;;;;6244466;28;20047;-77
2023/01/07 05:10:25;;;;;;;310.67;48.60;;;;;;;;;;6240521;28;20006;-77
2023/01/07 05:13:26;;;;;;;310.33;51.50;;;;;;;;;;6236866;28;20474;-78
2023/01/07 05:16:26;;;;;;;322.83;48.20;;;;;;;;;;6229290;28;20048;-77
2023/01/07 05:19:26;;;;;;;295.77;47.77;;;;;;;;;;6240556;28;20104;-77
2023/01/07 05:22:27;;;;;;;304.02;44.92;;;;;;;;;;6240400;28;20029;-77
2023/01/07 05:25:27;;;;;;;315.47;48.23;;;;;;;;;;6242991;28;20143;-77
2023/01/07 05:28:27;;;;;;;295.98;43.60;;;;;;;;;;6245108;28;20153;-77
2023/01/07 05:31:27;;;;;;;191.83;38.40;;;;;;;;;;6228489;28;20025;-76
2023/01/07 05:34:28;;;;;;;301.83;46.43;;;;;;;;;;6239052;28;20018;-76
2023/01/07 05:37:28;;;;;;;281.13;43.93;;;;;;;;;;6242220;28;20022;-77
2023/01/07 05:40:28;;;;;;;228.53;35.77;;;;;;;;;;6232097;28;20018;-77
2023/01/07 05:43:28;;;;;;;446.17;122.97;;;;;;;;;;6227143;28;20104;-76
2023/01/07 05:46:28;;;;;;;265.40;44.40;;;;;;;;;;6224703;28;20469;-77
2023/01/07 05:49:29;;;;;;;302.57;46.53;;;;;;;;;;6221398;28;20530;-76
2023/01/07 05:52:29;;;;;;;232.20;43.50;;;;;;;;;;6238188;28;20089;-77
2023/01/07 05:55:29;;;;;;;138.37;38.23;;;;;;;;;;6239347;28;20045;-76
2023/01/07 05:58:29;;;;;;;241.43;48.27;;;;;;;;;;6239198;28;20017;-77
2023/01/07 06:01:30;;;;;;;197.70;47.57;;;;;;;;;;6241268;28;20048;-76
2023/01/07 06:04:30;;;;;;;288.90;58.90;;;;;;;;;;6233720;28;20014;-76
2023/01/07 06:07:30;;;;;;;218.20;56.75;;;;;;;;;;6248306;28;20048;-77
2023/01/07 06:10:30;;;;;;;312.53;55.90;;;;;;;;;;6240965;28;20109;-77
2023/01/07 06:13:31;;;;;;;219.53;54.53;;;;;;;;;;6242532;28;20031;-77
2023/01/07 06:16:31;;;;;;;233.10;42.97;;;;;;;;;;6237526;28;20036;-77
2023/01/07 06:19:31;;;;;;;185.73;40.43;;;;;;;;;;6216939;28;20020;-77
2023/01/07 06:22:31;;;;;;;178.93;35.07;;;;;;;;;;6213448;28;20052;-76
2023/01/07 06:25:31;;;;;;;186.97;38.87;;;;;;;;;;6235971;28;20358;-76
2023/01/07 06:28:32;;;;;;;109.60;32.23;;;;;;;;;;6236372;28;20018;-76
2023/01/07 06:31:32;;;;;;;150.07;33.57;;;;;;;;;;6232334;28;20496;-76
2023/01/07 06:34:32;;;;;;;172.93;39.73;;;;;;;;;;6239187;28;20096;-77
2023/01/07 06:37:33;;;;;;;133.48;32.67;;;;;;;;;;6215116;28;20113;-76
2023/01/07 06:40:33;;;;;;;137.93;33.57;;;;;;;;;;6224281;28;20022;-76
2023/01/07 06:43:33;;;;;;;161.40;35.53;;;;;;;;;;6240620;28;20021;-76
2023/01/07 06:46:33;;;;;;;150.40;35.88;;;;;;;;;;6245693;28;20017;-76
2023/01/07 06:49:33;;;;;;;201.18;42.67;;;;;;;;;;6239187;28;20076;-76
2023/01/07 06:52:33;;;;;;;142.80;36.67;;;;;;;;;;6235513;28;20481;-77
2023/01/07 06:55:34;;;;;;;138.57;29.48;;;;;;;;;;6231135;28;20022;-77
2023/01/07 06:58:34;;;;;;;83.07;27.80;;;;;;;;;;6230881;28;20030;-77
2023/01/07 07:01:34;;;;;;;83.30;27.65;;;;;;;;;;6229619;28;20113;-76
2023/01/07 07:04:34;;;;;;;88.40;28.17;;;;;;;;;;6217969;28;20029;-76
2023/01/07 07:07:34;;;;;;;169.15;32.80;;;;;;;;;;6237762;28;20116;-77
2023/01/07 07:10:35;;;;;;;182.93;33.37;;;;;;;;;;6244722;28;20025;-76
2023/01/07 07:13:35;;;;;;;154.87;28.80;;;;;;;;;;6245242;28;20059;-77
2023/01/07 07:16:35;;;;;;;141.43;31.10;;;;;;;;;;6236561;28;20025;-76
2023/01/07 07:19:35;;;;;;;148.53;30.83;;;;;;;;;;6229106;28;20149;-77
2023/01/07 07:22:35;;;;;;;173.32;35.38;;;;;;;;;;6239029;28;20025;-77
2023/01/07 07:25:36;;;;;;;234.60;53.70;;;;;;;;;;6226845;28;20016;-77
2023/01/07 07:28:36;;;;;;;186.05;40.90;;;;;;;;;;6225282;28;20262;-77
2023/01/07 07:31:36;;;;;;;201.40;45.67;;;;;;;;;;6244357;28;20056;-76
2023/01/07 07:34:37;;;;;;;256.03;55.53;;;;;;;;;;6228323;28;20566;-76
2023/01/07 07:37:37;;;;;;;267.67;53.10;;;;;;;;;;6221227;28;20044;-76
2023/01/07 07:40:37;;;;;;;230.47;50.67;;;;;;;;;;6235620;28;20547;-76
2023/01/07 07:43:37;;;;;;;244.07;57.50;;;;;;;;;;6241100;28;20121;-76
2023/01/07 07:46:37;;;;;;;209.83;52.40;;;;;;;;;;6225772;28;20108;-77
2023/01/07 07:49:38;;;;;;;180.60;45.25;;;;;;;;;;6241941;28;20028;-77
2023/01/07 07:52:38;;;;;;;194.15;47.10;;;;;;;;;;6229949;28;20025;-77
2023/01/07 07:55:38;;;;;;;243.23;50.72;;;;;;;;;;6243479;28;20018;-77
2023/01/07 07:58:38;;;;;;;241.07;57.87;;;;;;;;;;6234213;28;20033;-77
2023/01/07 08:01:39;;;;;;;281.97;57.67;;;;;;;;;;6221377;28;20045;-76
2023/01/07 08:04:39;;;;;;;309.57;62.47;;;;;;;;;;6243737;28;20013;-76
2023/01/07 08:07:39;;;;;;;205.80;56.40;;;;;;;;;;6247623;28;20048;-77
2023/01/07 08:10:40;;;;;;;190.60;54.37;;;;;;;;;;6224232;28;20215;-76
2023/01/07 08:13:40;;;;;;;242.67;63.20;;;;;;;;;;6241151;28;20048;-76
2023/01/07 08:16:40;;;;;;;256.37;54.03;;;;;;;;;;6239433;28;20522;-76
2023/01/07 08:19:40;;;;;;;199.80;46.22;;;;;;;;;;6222559;28;20485;-76
2023/01/07 08:22:41;;;;;;;167.60;42.75;;;;;;;;;;6240287;28;20125;-76
2023/01/07 08:25:41;;;;;;;147.10;40.97;;;;;;;;;;6241282;28;20029;-77
2023/01/07 08:28:41;;;;;;;126.47;38.83;;;;;;;;;;6220007;28;20362;-77
2023/01/07 08:31:41;;;;;;;190.00;46.87;;;;;;;;;;6242397;28;20354;-76
2023/01/07 08:34:42;;;;;;;153.05;48.65;;;;;;;;;;6222283;28;20024;-77
2023/01/07 08:37:42;;;;;;;252.40;53.47;;;;;;;;;;6242052;28;20079;-77
2023/01/07 08:40:43;;;;;;;194.73;53.77;;;;;;;;;;6237208;28;20251;-77
2023/01/07 08:43:43;;;;;;;270.20;73.13;;;;;;;;;;6222268;28;20106;-77
2023/01/07 08:46:44;;;;;;;185.13;58.40;;;;;;;;;;6224794;28;20025;-77
2023/01/07 08:49:44;;;;;;;131.98;48.22;;;;;;;;;;6236950;28;20041;-77
2023/01/07 08:52:47;;;;;;;101.35;42.35;;;;;;;;;;6242266;28;20374;-77
2023/01/07 08:55:48;;;;;;;72.70;38.53;;;;;;;;;;6241040;28;20527;-77
2023/01/07 08:58:48;;;;;;;69.90;35.40;;;;;;;;;;6244208;28;20026;-77
2023/01/07 09:01:48;;;;;;;62.53;36.17;;;;;;;;;;6233944;28;20424;-77
2023/01/07 09:04:48;;;;;;;54.70;35.07;;;;;;;;;;6239995;28;20013;-77
2023/01/07 09:07:52;;;;;;;56.27;34.87;;;;;;;;;;6222657;28;20116;-77
2023/01/07 09:10:52;;;;;;;56.63;37.72;;;;;;;;;;6216981;28;20021;-77
2023/01/07 09:13:53;;;;;;;59.42;41.28;;;;;;;;;;6222545;28;20044;-78
2023/01/07 09:16:53;;;;;;;56.50;38.00;;;;;;;;;;6236839;28;20053;-77
2023/01/07 09:19:53;;;;;;;48.57;33.23;;;;;;;;;;6235622;28;20021;-76
2023/01/07 09:22:53;;;;;;;42.53;30.30;;;;;;;;;;6231146;28;20552;-77
2023/01/07 09:25:54;;;;;;;47.17;31.83;;;;;;;;;;6232408;28;20045;-77
2023/01/07 09:28:54;;;;;;;46.67;31.07;;;;;;;;;;6222933;28;20089;-77
2023/01/07 09:31:54;;;;;;;50.60;34.03;;;;;;;;;;6242372;28;20017;-77
2023/01/07 09:34:54;;;;;;;41.90;29.23;;;;;;;;;;6240426;28;20025;-77
2023/01/07 09:37:54;;;;;;;45.63;31.50;;;;;;;;;;6241344;28;20032;-78
2023/01/07 09:40:55;;;;;;;49.83;32.77;;;;;;;;;;6244461;28;20035;-77
2023/01/07 09:43:58;;;;;;;39.53;26.50;;;;;;;;;;6235470;28;20032;-77
2023/01/07 09:46:59;;;;;;;37.42;28.52;;;;;;;;;;6217414;28;20028;-77
2023/01/07 09:50:02;;;;;;;34.80;23.90;;;;;;;;;;6232023;28;20014;-77
2023/01/07 09:53:06;;;;;;;32.35;21.70;;;;;;;;;;6237123;28;20396;-78
2023/01/07 09:56:10;;;;;;;35.75;27.15;;;;;;;;;;6237913;28;20669;-78
2023/01/07 09:59:11;;;;;;;40.88;26.58;;;;;;;;;;6243821;28;20036;-78
2023/01/07 10:02:19;;;;;;;40.67;24.97;;;;;;;;;;6241632;28;20029;-78
2023/01/07 10:05:38;;;;;;;34.58;25.45;;;;;;;;;;6237887;28;20535;-78
2023/01/07 10:08:38;;;;;;;27.77;19.85;;;;;;;;;;6243939;28;20053;-79
2023/01/07 10:11:54;;;;;;;32.40;19.73;;;;;;;;;;6234426;28;20053;-79
2023/01/07 10:14:57;;;;;;;29.65;19.23;;;;;;;;;;6224467;28;20014;-79
2023/01/07 10:18:04;;;;;;;25.85;18.13;;;;;;;;;;6243332;28;20047;-79
2023/01/07 10:21:11;;;;;;;27.00;16.35;;;;;;;;;;6235056;28;20025;-79
2023/01/07 10:24:20;;;;;;;28.65;17.70;;;;;;;;;;6238438;28;20029;-79
2023/01/07 10:27:27;;;;;;;30.23;16.50;;;;;;;;;;6226958;28;20025;-77
2023/01/07 10:30:29;;;;;;;29.83;17.27;;;;;;;;;;6244136;28;20034;-78
2023/01/07 10:33:31;;;;;;;23.55;14.50;;;;;;;;;;6245538;28;20080;-79
2023/01/07 10:36:37;;;;;;;21.83;14.77;;;;;;;;;;6228287;28;20034;-79
2023/01/07 10:39:51;;;;;;;24.63;15.27;;;;;;;;;;6215284;28;20500;-79
2023/01/07 10:43:15;;;;;;;44.83;30.42;;;;;;;;;;6237424;28;20509;-78
2023/01/07 10:46:24;;;;;;;35.80;23.10;;;;;;;;;;6241512;28;20029;-78
2023/01/07 10:49:28;;;;;;;26.33;16.05;;;;;;;;;;6217245;28;20400;-78
2023/01/07 10:52:28;;;;;;;21.65;14.43;;;;;;;;;;6232112;28;20034;-79
2023/01/07 10:55:46;;;;;;;22.03;13.70;;;;;;;;;;6234995;28;20060;-79
2023/01/07 10:58:47;;;;;;;19.15;12.73;;;;;;;;;;6241636;28;20131;-79
2023/01/07 11:01:50;;;;;;;17.15;12.63;;;;;;;;;;6240688;28;20025;-79
2023/01/07 11:04:51;;;;;;;20.83;12.82;;;;;;;;;;6236297;28;20037;-79
2023/01/07 11:07:55;;;;;;;22.35;15.73;;;;;;;;;;6236575;28;20037;-79
2023/01/07 11:10:56;;;;;;;19.95;13.15;;;;;;;;;;6225750;28;20014;-79
2023/01/07 11:13:58;;;;;;;17.45;12.57;;;;;;;;;;6225389;28;20072;-79
2023/01/07 11:17:07;;;;;;;21.70;12.07;;;;;;;;;;6241558;28;20017;-79
2023/01/07 11:20:08;;;;;;;23.80;13.77;;;;;;;;;;6238335;28;20094;-79
2023/01/07 11:23:26;;;;;;;18.10;12.47;;;;;;;;;;6242676;28;20025;-78
2023/01/07 11:26:28;;;;;;;17.35;11.88;;;;;;;;;;6242716;28;20123;-79
2023/01/07 11:29:33;;;;;;;25.05;16.52;;;;;;;;;;6227746;28;20082;-78
2023/01/07 11:32:37;;;;;;;27.77;15.57;;;;;;;;;;6228824;28;20013;-78
2023/01/07 11:35:43;;;;;;;22.60;14.43;;;;;;;;;;6244500;28;20060;-79
2023/01/07 11:38:43;;;;;;;21.08;14.52;;;;;;;;;;6243639;28;20441;-78
2023/01/07 11:41:51;;;;;;;24.37;16.37;;;;;;;;;;6224922;28;20029;-79
2023/01/07 11:45:06;;;;;;;23.90;15.48;;;;;;;;;;6244744;28;20043;-79
2023/01/07 11:48:08;;;;;;;24.98;13.70;;;;;;;;;;6242705;28;20144;-78
2023/01/07 11:51:09;;;;;;;;;;;;;;;;;;6228499;28;20014;-79
2023/01/07 11:54:20;;;;;;;24.25;14.10;;;;;;;;;;6237390;28;19937;-78
2023/01/07 11:57:25;;;;;;;21.58;14.38;;;;;;;;;;6240223;28;20025;-78
2023/01/07 12:00:27;;;;;;;21.42;13.13;;;;;;;;;;6236017;28;20009;-78
2023/01/07 12:03:27;;;;;;;21.38;13.75;;;;;;;;;;6222762;28;20028;-78
2023/01/07 12:06:30;;;;;;;17.93;13.23;;;;;;;;;;6224049;28;20501;-78
2023/01/07 12:09:30;;;;;;;17.92;10.30;;;;;;;;;;6228637;28;20013;-78
2023/01/07 12:12:30;;;;;;;10.73;6.72;;;;;;;;;;6228886;28;20013;-79
2023/01/07 12:15:33;;;;;;;12.90;7.47;;;;;;;;;;6243538;28;20021;-79
2023/01/07 12:18:42;;;;;;;12.63;7.30;;;;;;;;;;6230014;28;20021;-78
2023/01/07 12:21:57;;;;;;;12.68;7.30;;;;;;;;;;6247402;28;20021;-79
2023/01/07 12:25:16;;;;;;;10.43;6.68;;;;;;;;;;6229797;28;20092;-78
2023/01/07 12:28:30;;;;;;;12.68;5.90;;;;;;;;;;6247061;28;20017;-78
2023/01/07 12:31:39;;;;;;;13.35;8.93;;;;;;;;;;6246374;28;20025;-77
2023/01/07 12:34:45;;;;;;;10.23;6.43;;;;;;;;;;6254233;28;20020;-78
2023/01/07 12:37:56;;;;;;;12.32;6.20;;;;;;;;;;6245611;28;20088;-78
2023/01/07 12:40:59;;;;;;;12.73;6.97;;;;;;;;;;6240195;28;20438;-79
2023/01/07 12:44:01;;;;;;;22.40;11.57;;;;;;;;;;6242927;28;20473;-78
2023/01/07 12:47:07;;;;;;;19.70;10.07;;;;;;;;;;6238724;28;20014;-78
2023/01/07 12:50:31;;;;;;;13.50;7.60;;;;;;;;;;6242114;28;20021;-78
2023/01/07 12:53:37;;;;;;;14.27;8.25;;;;;;;;;;6234276;28;20112;-78
2023/01/07 12:56:42;;;;;;;17.17;8.45;;;;;;;;;;6239348;28;20477;-79
2023/01/07 12:59:57;;;;;;;15.35;7.25;;;;;;;;;;6225983;28;20010;-79
2023/01/07 13:03:16;;;;;;;11.43;7.07;;;;;;;;;;6246430;28;20659;-78
2023/01/07 13:06:23;;;;;;;12.82;7.90;;;;;;;;;;6210333;28;20029;-78
2023/01/07 13:09:42;;;;;;;12.13;7.60;;;;;;;;;;6246067;28;20021;-79
2023/01/07 13:12:43;;;;;;;10.98;8.23;;;;;;;;;;6247324;28;20029;-78
2023/01/07 13:15:43;;;;;;;34.47;14.65;;;;;;;;;;6246676;28;20092;-79
2023/01/07 13:18:43;;;;;;;17.90;8.97;;;;;;;;;;6229530;28;20017;-79
2023/01/07 13:21:45;;;;;;;16.10;9.40;;;;;;;;;;6246401;28;20030;-79
2023/01/07 13:24:55;;;;;;;14.50;8.77;;;;;;;;;;6246056;28;20037;-78
2023/01/07 13:27:57;;;;;;;12.50;7.13;;;;;;;;;;6239800;28;20089;-79
2023/01/07 13:31:04;;;;;;;14.95;7.55;;;;;;;;;;6237048;28;20090;-78
2023/01/07 13:34:31;;;;;;;13.70;8.60;;;;;;;;;;6226622;28;20021;-78
2023/01/07 13:37:37;;;;;;;13.88;8.63;;;;;;;;;;6242359;28;20448;-78
2023/01/07 13:40:51;;;;;;;15.00;9.25;;;;;;;;;;6234602;28;20101;-79
2023/01/07 13:43:55;;;;;;;14.80;9.32;;;;;;;;;;6231765;28;20112;-79
2023/01/07 13:46:55;;;;;;;18.05;9.55;;;;;;;;;;6233596;28;20022;-79
2023/01/07 13:49:57;;;;;;;14.07;8.27;;;;;;;;;;6226087;28;20448;-79
2023/01/07 13:52:57;;;;;;;;;;;;;;;;;;6224492;28;20029;-79
2023/01/07 13:56:15;;;;;;;13.10;8.88;;;;;;;;;;6237909;28;19913;-78
2023/01/07 13:59:29;;;;;;;15.90;8.80;;;;;;;;;;6223061;28;20448;-78
2023/01/07 14:02:56;;;;;;;21.67;11.85;;;;;;;;;;6225506;28;20080;-78
2023/01/07 14:06:25;;;;;;;30.05;15.35;;;;;;;;;;6230262;28;20516;-79
2023/01/07 14:09:30;;;;;;;29.80;17.25;;;;;;;;;;6187049;28;20555;-79
2023/01/07 14:12:50;;;;;;;30.55;19.70;;;;;;;;;;6187782;28;20030;-79
2023/01/07 14:16:02;;;;;;;26.10;17.33;;;;;;;;;;6188528;28;20036;-78
2023/01/07 14:19:18;;;;;;;30.80;17.65;;;;;;;;;;6179626;28;20015;-78
2023/01/07 14:22:37;;;;;;;26.88;17.30;;;;;;;;;;6186859;28;20060;-78
2023/01/07 14:25:40;;;;;;;96.00;55.17;;;;;;;;;;6176228;28;20585;-79
2023/01/07 14:28:53;;;;;;;110.78;59.28;;;;;;;;;;6188403;28;20026;-79
2023/01/07 14:32:11;;;;;;;70.80;35.33;;;;;;;;;;6193478;28;20122;-79
2023/01/07 14:35:11;;;;;;;54.03;30.10;;;;;;;;;;6195278;28;20045;-78
2023/01/07 14:38:30;;;;;;;48.42;26.15;;;;;;;;;;6194171;28;20015;-78
2023/01/07 14:41:30;;;;;;;52.58;31.73;;;;;;;;;;6194346;28;20031;-77
2023/01/07 14:44:30;;;;;;;76.77;42.17;;;;;;;;;;6201178;28;20029;-79
2023/01/07 14:47:39;;;;;;;42.73;25.73;;;;;;;;;;6200570;28;20046;-79
2023/01/07 14:50:48;;;;;;;48.65;31.15;;;;;;;;;;6201056;28;20046;-79
2023/01/07 14:54:08;;;;;;;47.15;28.73;;;;;;;;;;6195214;28;20095;-79
2023/01/07 14:57:23;;;;;;;49.38;29.38;;;;;;;;;;6191261;28;20494;-78
2023/01/07 15:00:42;;;;;;;41.50;26.27;;;;;;;;;;6188161;28;20274;-78
2023/01/07 15:03:53;;;;;;;35.85;24.50;;;;;;;;;;6191175;28;20022;-78
2023/01/07 15:06:55;;;;;;;42.35;24.90;;;;;;;;;;6206328;28;20497;-79
2023/01/07 15:16:35;;;;;;;39.65;26.80;;;;;;;;;;6241485;28;20033;-79
2023/01/07 15:19:37;;;;;;;43.87;29.40;;;;;;;;;;6228186;28;20515;-79
2023/01/07 15:22:49;;;;;;;31.35;18.90;;;;;;;;;;6244888;28;20029;-78
2023/01/07 15:25:54;;;;;;;36.60;23.25;;;;;;;;;;6228644;28;20028;-79
2023/01/07 15:29:13;;;;;;;43.13;25.30;;;;;;;;;;6245202;28;20025;-78
2023/01/07 15:32:35;;;;;;;30.08;17.13;;;;;;;;;;6239972;28;20131;-79
2023/01/07 15:35:40;;;;;;;43.60;25.10;;;;;;;;;;6214073;28;20025;-79
2023/01/07 15:38:43;;;;;;;24.90;13.68;;;;;;;;;;6243336;28;20025;-79
2023/01/07 15:41:43;;;;;;;29.48;16.25;;;;;;;;;;6244658;28;20036;-79
2023/01/07 15:44:46;;;;;;;34.63;17.47;;;;;;;;;;6246770;28;20116;-79
2023/01/07 15:47:47;;;;;;;32.50;20.50;;;;;;;;;;6221400;28;20025;-79
2023/01/07 15:50:47;;;;;;;36.43;18.37;;;;;;;;;;6223295;28;20699;-79
2023/01/07 15:53:56;;;;;;;33.42;18.08;;;;;;;;;;6218832;28;20047;-79
2023/01/07 15:56:58;;;;;;;36.15;19.13;;;;;;;;;;6239117;28;20496;-78
2023/01/07 15:59:58;;;;;;;;;;;;;;;;;;6220569;28;20066;-78
2023/01/07 16:02:58;;;;;;;33.67;19.05;;;;;;;;;;6228494;28;19920;-79
2023/01/07 16:06:00;;;;;;;39.90;21.17;;;;;;;;;;6245570;28;20030;-79
2023/01/07 16:09:02;;;;;;;43.03;21.20;;;;;;;;;;6228974;28;20096;-79
2023/01/07 16:12:17;;;;;;;31.65;17.60;;;;;;;;;;6229592;28;20020;-79
2023/01/07 16:15:21;;;;;;;29.65;16.85;;;;;;;;;;6220504;28;20025;-79
2023/01/07 16:18:21;;;;;;;32.20;19.50;;;;;;;;;;6239509;28;20014;-78
2023/01/07 16:21:22;;;;;;;30.27;17.10;;;;;;;;;;6218506;28;20032;-79
2023/01/07 16:24:22;;;;;;;38.40;21.53;;;;;;;;;;6225783;28;20030;-79
2023/01/07 16:27:27;;;;;;;31.30;17.00;;;;;;;;;;6247787;28;20025;-79
2023/01/07 16:30:27;;;;;;;35.85;20.52;;;;;;;;;;6228834;28;20104;-78
2023/01/07 16:33:30;;;;;;;30.90;18.90;;;;;;;;;;6230271;28;20044;-79
2023/01/07 16:36:31;;;;;;;34.15;19.33;;;;;;;;;;6248388;28;20083;-79
2023/01/07 16:39:39;;;;;;;55.65;28.02;;;;;;;;;;6248694;28;20064;-79
2023/01/07 16:42:45;;;;;;;53.00;29.15;;;;;;;;;;6248889;28;20064;-79
2023/01/07 16:46:03;;;;;;;56.03;33.13;;;;;;;;;;6243586;28;20464;-79
2023/01/07 16:49:16;;;;;;;64.15;33.38;;;;;;;;;;6233844;28;20021;-79
2023/01/07 16:52:17;;;;;;;49.30;28.55;;;;;;;;;;6235787;28;20460;-79
2023/01/07 16:55:35;;;;;;;61.07;33.50;;;;;;;;;;6231810;28;20072;-80
2023/01/07 16:58:56;;;;;;;64.68;34.83;;;;;;;;;;6238855;28;20416;-79
2023/01/07 17:01:57;;;;;;;62.90;37.17;;;;;;;;;;6229726;28;20048;-79
2023/01/07 17:05:16;;;;;;;87.03;48.53;;;;;;;;;;6230886;28;20109;-79
2023/01/07 17:08:18;;;;;;;92.10;55.00;;;;;;;;;;6211655;28;20056;-79
2023/01/07 17:11:20;;;;;;;109.28;55.38;;;;;;;;;;6223498;28;20033;-79
2023/01/07 17:14:32;;;;;;;89.88;53.75;;;;;;;;;;6216990;28;20485;-79
2023/01/07 17:17:32;;;;;;;52.50;30.65;;;;;;;;;;6224734;28;20072;-79
2023/01/07 17:20:40;;;;;;;38.40;21.30;;;;;;;;;;6239558;28;20389;-79
2023/01/07 17:23:41;;;;;;;51.80;27.63;;;;;;;;;;6236662;28;20029;-79
2023/01/07 17:26:41;;;;;;;54.13;27.50;;;;;;;;;;6236907;28;20026;-79
2023/01/07 17:29:42;;;;;;;60.87;31.60;;;;;;;;;;6235449;28;20689;-79
2023/01/07 17:32:42;;;;;;;51.33;27.47;;;;;;;;;;6220268;28;20497;-79
2023/01/07 17:35:43;;;;;;;84.53;34.13;;;;;;;;;;6231197;28;20025;-79
2023/01/07 17:38:43;;;;;;;89.93;31.77;;;;;;;;;;6221361;28;20560;-79
2023/01/07 17:45:03;;;;;;;69.15;26.60;;;;;;;;;;6234209;28;20073;-79
2023/01/07 17:48:10;;;;;;;72.30;38.30;;;;;;;;;;6234952;28;20024;-79
2023/01/07 17:51:10;;;;;;;75.38;33.30;;;;;;;;;;6215117;28;20028;-79
2023/01/07 17:54:16;;;;;;;52.10;29.30;;;;;;;;;;6222848;28;20388;-79
2023/01/07 17:57:17;;;;;;;48.78;26.70;;;;;;;;;;6229723;28;20108;-79
2023/01/07 18:00:18;;;;;;;46.92;25.65;;;;;;;;;;6228747;28;20388;-79
2023/01/07 18:03:19;;;;;;;;;;;;;;;;;;6215506;28;20065;-80
2023/01/07 18:06:23;;;;;;;68.57;32.47;;;;;;;;;;6213559;28;19919;-79
2023/01/07 18:09:23;;;;;;;65.20;31.20;;;;;;;;;;6235374;28;20044;-79